createdAt,value
2023-05-05T05:07:33.026Z,101421.81
2023-05-05T05:12:37.703Z,101412.97
2023-05-05T05:17:42.066Z,101415.78
2023-05-05T05:22:46.830Z,101407.94
2023-05-05T05:33:07.505Z,101416.34
2023-05-05T07:30:18.138Z,101359.97
2023-05-05T07:35:25.027Z,101355.63
2023-05-05T07:40:29.910Z,101356.19
2023-05-05T07:45:34.148Z,101348.91
2023-05-05T07:50:38.470Z,101341.25
2023-05-05T07:55:42.897Z,101336.25
2023-05-05T08:00:47.231Z,101336.00
2023-05-05T08:05:51.923Z,101330.13
2023-05-05T08:10:56.232Z,101309.41
2023-05-05T08:16:00.715Z,101323.13
2023-05-05T08:21:09.422Z,101332.84
2023-05-05T08:26:13.730Z,101302.38
2023-05-05T08:31:18.108Z,101306.34
2023-05-05T08:36:22.582Z,101294.19
2023-05-05T08:41:27.383Z,101282.34
2023-05-05T08:46:32.300Z,101291.94
2023-05-05T08:51:43.517Z,101289.53
2023-05-05T08:56:51.524Z,101285.22
2023-05-05T09:01:59.469Z,101280.66
2023-05-05T09:07:04.336Z,101267.50
2023-05-05T09:12:09.011Z,101268.31
2023-05-05T09:17:26.864Z,101263.19
2023-05-05T09:22:37.057Z,101257.81
2023-05-05T09:27:43.924Z,101281.75
2023-05-05T09:32:53.291Z,101278.25
2023-05-05T09:37:59.086Z,101284.31
2023-05-05T09:43:03.564Z,101289.38
2023-05-05T09:48:08.158Z,101264.25
2023-05-05T09:53:12.716Z,101265.94
2023-05-05T09:58:31.462Z,101265.09
2023-05-05T10:03:50.368Z,101263.19
2023-05-05T10:09:03.722Z,101251.72
2023-05-05T10:14:16.738Z,101261.19
2023-05-05T10:19:25.244Z,101244.66
2023-05-05T10:24:39.507Z,101247.50
2023-05-05T10:29:49.101Z,101248.66
2023-05-05T10:35:04.859Z,101241.59
2023-05-05T10:40:11.255Z,101271.59
2023-05-05T10:45:15.815Z,101274.31
2023-05-05T10:50:42.375Z,101261.31
2023-05-05T10:55:50.088Z,101252.97
2023-05-05T11:00:56.068Z,101259.94
2023-05-05T11:06:08.396Z,101253.34
2023-05-05T11:11:13.695Z,101231.47
2023-05-05T11:16:47.797Z,101279.16
2023-05-05T11:22:02.783Z,101279.06
2023-05-05T11:27:07.592Z,101280.19
2023-05-05T11:32:16.601Z,101281.81
2023-05-05T11:37:24.988Z,101281.81
2023-05-05T11:42:30.844Z,101289.09
2023-05-05T11:47:35.269Z,101258.97
2023-05-05T11:52:39.672Z,101295.34
2023-05-05T11:57:43.960Z,101310.66
2023-05-05T12:02:57.598Z,101313.06
2023-05-05T12:08:02.722Z,101276.69
2023-05-05T12:13:19.113Z,101301.63
2023-05-05T12:18:23.715Z,101279.63
2023-05-05T12:23:31.015Z,101273.94
2023-05-05T12:28:48.990Z,101274.50
2023-05-05T12:33:54.576Z,101259.78
2023-05-05T12:38:59.437Z,101253.03
2023-05-05T12:44:03.943Z,101165.88
2023-05-05T12:49:09.902Z,101220.59
2023-05-05T12:54:14.424Z,101227.31
2023-05-05T12:59:25.073Z,101221.66
2023-05-05T13:04:29.769Z,101203.03
2023-05-05T13:09:37.239Z,101210.28
2023-05-05T13:14:42.607Z,101194.56
2023-05-05T13:19:46.946Z,101168.97
2023-05-05T13:24:52.828Z,101182.50
2023-05-05T13:29:57.575Z,101165.06
2023-05-05T13:35:02.177Z,101155.09
2023-05-05T13:40:09.247Z,101146.22
2023-05-05T13:45:14.768Z,101136.84
2023-05-05T13:50:21.042Z,101122.28
2023-05-05T13:55:28.986Z,101120.09
2023-05-05T14:00:36.836Z,101128.88
2023-05-05T14:05:46.894Z,101119.22
2023-05-05T14:10:52.441Z,101114.00
2023-05-05T14:15:59.464Z,101116.06
2023-05-05T14:21:05.340Z,101113.56
2023-05-05T14:26:11.483Z,101106.47
2023-05-05T14:31:18.363Z,101102.94
2023-05-05T14:36:24.464Z,101106.34
2023-05-05T14:41:32.010Z,101088.47
2023-05-05T14:46:37.405Z,101088.22
2023-05-05T14:51:43.733Z,101048.75
2023-05-05T14:56:49.324Z,101060.91
2023-05-05T15:01:55.201Z,101083.41
2023-05-05T15:07:02.611Z,101082.09
2023-05-05T15:12:11.056Z,101087.84
2023-05-05T15:17:16.905Z,101084.66
2023-05-05T15:22:22.434Z,101080.88
2023-05-05T15:27:28.093Z,101073.97
2023-05-05T15:32:33.748Z,101067.69
2023-05-05T15:37:39.577Z,101081.94
2023-05-05T15:42:45.239Z,101081.81
2023-05-05T15:47:51.274Z,101079.63
2023-05-05T15:52:58.332Z,101091.56
2023-05-05T15:58:04.577Z,101058.28
2023-05-05T16:03:10.410Z,101086.59
2023-05-05T16:08:16.556Z,101077.09
2023-05-05T16:13:22.516Z,101095.59
2023-05-05T16:18:27.836Z,101101.50
2023-05-05T16:23:33.276Z,101081.84
2023-05-05T16:28:38.811Z,101075.25
2023-05-05T16:33:44.429Z,101089.81
2023-05-05T16:38:49.176Z,101089.09
2023-05-05T16:43:55.717Z,101094.41
2023-05-05T16:49:01.767Z,101087.19
2023-05-05T16:54:09.071Z,101099.66
2023-05-05T16:59:16.505Z,101087.97
2023-05-05T17:04:21.838Z,101101.69
2023-05-05T17:09:28.509Z,101104.19
2023-05-05T17:14:34.239Z,101097.13
2023-05-05T17:19:41.204Z,101088.69
2023-05-05T17:24:46.661Z,101090.69
2023-05-05T17:29:52.403Z,101081.94
2023-05-05T17:34:57.059Z,101087.50
2023-05-05T17:40:02.391Z,101074.44
2023-05-05T17:45:10.168Z,101076.00
2023-05-05T17:50:15.665Z,101065.16
2023-05-05T17:55:21.975Z,101071.59
2023-05-05T18:00:28.793Z,101063.06
2023-05-05T18:05:34.835Z,101051.28
2023-05-05T18:10:40.649Z,101066.16
2023-05-05T18:15:46.382Z,101068.31
2023-05-05T18:20:52.449Z,101058.66
2023-05-05T18:25:57.518Z,101067.38
2023-05-05T18:31:03.083Z,101055.69
2023-05-05T18:36:09.939Z,101051.13
2023-05-05T18:41:16.062Z,101050.53
2023-05-05T18:46:23.677Z,101059.63
2023-05-05T18:51:29.296Z,101021.03
2023-05-05T18:56:34.409Z,101043.91
2023-05-05T19:01:39.916Z,101046.41
2023-05-05T19:06:45.658Z,100999.94
2023-05-05T19:11:51.795Z,101034.28
2023-05-05T19:16:59.538Z,101037.75
2023-05-05T19:22:05.244Z,101016.44
2023-05-05T19:27:16.431Z,101024.56
2023-05-05T19:32:25.138Z,101012.81
2023-05-05T19:37:32.295Z,101013.25
2023-05-05T19:42:38.060Z,101012.88
2023-05-05T19:47:44.219Z,101008.16
2023-05-05T19:52:50.636Z,101001.44
2023-05-05T19:57:57.668Z,100999.84
2023-05-05T20:03:03.941Z,101001.66
2023-05-05T20:08:10.437Z,100987.28
2023-05-05T20:13:16.837Z,100955.28
2023-05-05T20:18:22.700Z,100977.00
2023-05-05T20:23:29.119Z,100978.81
2023-05-05T20:28:35.437Z,100977.22
2023-05-05T20:33:41.102Z,100980.47
2023-05-05T20:38:45.922Z,100984.94
2023-05-05T20:43:51.189Z,100984.09
2023-05-05T20:48:56.806Z,100982.91
2023-05-05T20:54:01.842Z,100976.00
2023-05-05T20:59:07.940Z,100956.13
2023-05-05T21:04:13.564Z,100961.78
2023-05-05T21:09:20.740Z,100962.59
2023-05-05T21:14:26.651Z,100957.94
2023-05-05T21:19:33.816Z,100945.13
2023-05-05T21:24:40.293Z,100945.13
2023-05-05T21:29:45.691Z,100930.72
2023-05-05T21:34:50.906Z,100919.53
2023-05-05T21:39:56.656Z,100926.66
2023-05-05T21:45:01.408Z,100931.88
2023-05-05T21:50:10.941Z,100919.47
2023-05-05T21:55:16.823Z,100920.09
2023-05-05T22:00:22.942Z,100917.25
2023-05-05T22:05:29.373Z,100902.22
2023-05-05T22:10:35.680Z,100897.16
2023-05-05T22:15:47.044Z,100891.44
2023-05-05T22:20:56.676Z,100887.16
2023-05-05T22:26:02.495Z,100886.19
2023-05-05T22:31:09.313Z,100890.63
2023-05-05T22:36:14.966Z,100883.31
2023-05-05T22:41:20.751Z,100880.69
2023-05-05T22:46:26.714Z,100887.78
2023-05-05T22:51:32.810Z,100875.97
2023-05-05T22:56:38.016Z,100874.56
2023-05-05T23:01:43.631Z,100872.34
2023-05-05T23:06:49.224Z,100859.56
2023-05-05T23:11:54.845Z,100858.91
2023-05-05T23:17:00.774Z,100863.00
2023-05-05T23:22:06.612Z,100864.28
2023-05-05T23:27:13.876Z,100863.31
2023-05-05T23:32:20.747Z,100858.66
2023-05-05T23:37:26.640Z,100855.63
2023-05-05T23:42:32.155Z,100852.78
2023-05-05T23:47:37.862Z,100852.97
2023-05-05T23:52:43.301Z,100854.16
2023-05-05T23:57:49.040Z,100841.59
